Language selection

My Weather Profile Weather Topics  | 

Strait of Belle Isle - eastern half: Past 24 Hour Conditions

 

Hopedale

10:00 PM ADT 09 May 2021
Disclaimer

This table is a summary of hourly weather conditions for the past 24 hours.
Please note that these observations might not always be representative of weather conditions over their associated marine area.

Date / Time
(ADT)
Wind(knots) Conditions Visibility(km) Pressure(kPa) Air tempC) Relative humidity(%) Dew pointC)
09 May 2021
22:00 15 N/A N/A 101.4 1 96 0
21:00 13 N/A N/A 101.4 1 96 0
20:00 11 gust 17 N/A N/A 101.4 1 95 0
19:00 12 N/A N/A 101.5 1 95 0
18:00 13 gust 30 N/A N/A 101.5 1 95 0
17:00 14 N/A N/A 101.5 1 94 0
16:00 13 gust 18 N/A N/A 101.5 1 93 0
15:00 12 gust 19 N/A N/A 101.6 1 92 0
14:00 14 N/A N/A 101.7 1 92 0
13:00 12 gust 18 N/A N/A 101.8 1 91 0
12:00 12 gust 32 N/A N/A 101.8 1 92 0
11:00 12 gust 17 N/A N/A 101.9 1 93 0
10:00 12 gust 17 N/A N/A 102.0 1 95 0
9:00 10 gust 15 N/A N/A 102.1 1 96 0
8:00 10 N/A N/A 102.1 0 97 0
7:00 12 N/A N/A 102.1 1 95 0
6:00 8 N/A N/A 102.2 1 96 0
5:00 8 N/A N/A 102.1 0 92 -1
4:00 8 N/A N/A 102.2 1 90 -1
3:00 4 N/A N/A 102.3 1 90 -1
2:00 4 N/A N/A 102.4 1 91 -1
1:00 4 N/A N/A 102.4 0 95 0
0:00 5 N/A N/A 102.4 0 94 -1
08 May 2021
23:00 3 gust 28 N/A N/A 102.5 0 91 -1
22:00 5 N/A N/A 102.5 0 92 -1

Zoom-in to make a selection

Map of Atlantic - Labrador marine weather areas Kangiqsualujjuaq Airport Cape Kakkiviak Cape Kiglapait Cartwright Airport CFB Goose Bay Hopedale Mary's Harbour Nain Airport Makkovik Airport Saglek Tukialik Bay
Legend:
buoy Buoy
land station Land Station

Atlantic - Labrador Area

Another Region

What we are doing

Date modified: